Time;durP1;ratioP1;P1;durP2;ratioP2;P2;SDS_P1;SDS_P2;PMS_P1;PMS_P2;Temp;Humidity;BMP_temperature;BMP_pressure;BME280_temperature;BME280_humidity;BME280_pressure;Samples;Min_cycle;Max_cycle;Signal;HPM_P1;HPM_P2
2021/05/21 00:01:30;;;;;;;4.80;1.70;;;14.10;66.40;;;;;;5010951;28;20040;-75
2021/05/21 00:03:57;;;;;;;4.38;2.80;;;14.00;66.60;;;;;;4996497;28;20050;-75
2021/05/21 00:06:22;;;;;;;3.50;1.27;;;14.00;66.90;;;;;;5012126;28;20033;-75
2021/05/21 00:08:48;;;;;;;3.08;1.77;;;14.00;67.00;;;;;;4992006;28;20122;-74
2021/05/21 00:11:13;;;;;;;2.45;0.82;;;14.00;67.00;;;;;;5011311;28;20044;-75
2021/05/21 00:13:39;;;;;;;2.95;2.22;;;14.00;67.10;;;;;;5010850;28;20025;-75
2021/05/21 00:16:05;;;;;;;5.55;1.30;;;14.00;67.10;;;;;;5010665;28;20038;-74
2021/05/21 00:18:31;;;;;;;5.15;1.92;;;14.10;67.10;;;;;;5012397;28;20030;-75
2021/05/21 00:20:57;;;;;;;4.40;2.75;;;14.10;67.00;;;;;;5010227;28;20427;-78
2021/05/21 00:23:22;;;;;;;4.13;2.20;;;14.10;67.20;;;;;;5010496;28;20053;-75
2021/05/21 00:25:48;;;;;;;4.05;1.52;;;14.20;67.10;;;;;;5010993;28;20080;-76
2021/05/21 00:28:14;;;;;;;1.90;0.82;;;14.20;67.10;;;;;;5011696;28;20566;-75
2021/05/21 00:30:40;;;;;;;1.77;0.60;;;14.20;66.90;;;;;;5010785;28;20041;-75
2021/05/21 00:33:05;;;;;;;1.92;1.13;;;14.20;66.90;;;;;;5009475;28;20041;-75
2021/05/21 00:35:31;;;;;;;5.22;2.72;;;14.10;67.00;;;;;;5010387;28;20105;-76
2021/05/21 00:37:57;;;;;;;3.90;0.73;;;14.10;67.20;;;;;;5009762;28;20086;-75
2021/05/21 00:40:22;;;;;;;3.88;0.98;;;14.10;67.10;;;;;;5011580;28;20387;-75
2021/05/21 00:42:48;;;;;;;2.58;1.77;;;14.10;67.10;;;;;;5010843;28;20049;-81
2021/05/21 00:45:14;;;;;;;3.63;0.60;;;14.10;67.20;;;;;;5012012;28;20121;-75
2021/05/21 00:47:41;;;;;;;3.65;0.90;;;14.20;67.20;;;;;;5010380;28;20128;-75
2021/05/21 00:50:07;;;;;;;3.28;0.93;;;14.10;67.10;;;;;;4993492;28;20292;-75
2021/05/21 00:52:36;;;;;;;1.55;1.00;;;14.10;67.10;;;;;;5009674;28;20026;-75
2021/05/21 00:55:04;;;;;;;2.38;0.95;;;14.10;67.30;;;;;;5010650;28;20057;-75
2021/05/21 00:57:29;;;;;;;3.72;0.70;;;14.10;67.20;;;;;;5011380;28;20573;-75
2021/05/21 00:59:55;;;;;;;1.58;0.60;;;14.10;67.30;;;;;;5008861;28;20138;-76
2021/05/21 01:02:21;;;;;;;2.85;0.60;;;14.10;67.40;;;;;;4993478;28;20065;-75
2021/05/21 01:04:46;;;;;;;4.15;1.67;;;14.10;67.40;;;;;;5009497;28;20482;-76
2021/05/21 01:07:12;;;;;;;2.45;0.60;;;14.00;67.60;;;;;;5009169;28;20029;-75
2021/05/21 01:09:38;;;;;;;3.33;0.60;;;14.00;67.70;;;;;;5009818;28;20155;-76
2021/05/21 01:12:04;;;;;;;1.85;0.38;;;14.00;67.70;;;;;;4989277;28;20180;-75
2021/05/21 01:14:30;;;;;;;4.68;0.90;;;14.00;67.60;;;;;;4977657;28;20176;-76
2021/05/21 01:16:55;;;;;;;1.70;0.85;;;14.00;67.70;;;;;;5009049;28;20116;-76
2021/05/21 01:19:21;;;;;;;1.75;0.90;;;14.00;67.90;;;;;;5009899;28;20037;-75
2021/05/21 01:21:47;;;;;;;5.25;0.70;;;13.90;67.90;;;;;;5009590;28;20505;-75
2021/05/21 01:24:14;;;;;;;5.53;1.00;;;13.90;68.00;;;;;;5010650;28;20026;-75
2021/05/21 01:26:39;;;;;;;2.40;1.25;;;13.90;68.10;;;;;;5009752;28;20057;-75
2021/05/21 01:29:08;;;;;;;4.78;1.17;;;13.90;68.30;;;;;;5009598;28;20136;-77
2021/05/21 01:31:35;;;;;;;1.55;0.68;;;13.90;68.30;;;;;;5009614;28;20160;-77
2021/05/21 01:34:01;;;;;;;1.95;0.65;;;13.90;68.20;;;;;;5010049;28;20032;-76
2021/05/21 01:36:27;;;;;;;3.80;1.55;;;13.80;68.30;;;;;;5010714;28;20028;-76
2021/05/21 01:39:07;;;;;;;2.45;1.10;;;13.80;68.50;;;;;;5009619;28;20038;-76
2021/05/21 01:41:34;;;;;;;3.78;2.05;;;13.70;68.60;;;;;;5009655;28;20030;-76
2021/05/21 01:44:01;;;;;;;2.50;0.68;;;13.70;68.90;;;;;;5007763;28;20037;-78
2021/05/21 01:46:27;;;;;;;1.80;0.50;;;13.60;69.10;;;;;;5010380;28;20030;-75
2021/05/21 01:48:53;;;;;;;4.03;1.23;;;13.50;69.00;;;;;;4993101;28;20081;-76
2021/05/21 01:51:18;;;;;;;3.80;0.60;;;13.50;69.40;;;;;;5009599;28;20057;-77
2021/05/21 01:53:44;;;;;;;3.33;0.40;;;13.50;69.30;;;;;;5010616;28;20041;-75
2021/05/21 01:56:09;;;;;;;3.63;1.52;;;13.50;69.20;;;;;;5010043;28;20033;-74
2021/05/21 01:58:35;;;;;;;2.55;0.50;;;13.50;69.50;;;;;;4993286;28;20049;-75
2021/05/21 02:01:01;;;;;;;4.22;1.02;;;13.40;69.40;;;;;;4992486;28;20026;-78
2021/05/21 02:03:28;;;;;;;4.00;1.00;;;13.30;69.60;;;;;;4992191;28;20513;-75
2021/05/21 02:05:54;;;;;;;4.38;1.50;;;13.40;70.00;;;;;;5009441;28;20030;-74
2021/05/21 02:08:23;;;;;;;2.83;0.73;;;13.30;70.20;;;;;;4992202;28;20038;-76
2021/05/21 02:10:49;;;;;;;3.35;0.80;;;13.20;70.20;;;;;;5009118;28;20065;-74
2021/05/21 02:13:14;;;;;;;2.33;1.10;;;13.20;70.30;;;;;;5007986;28;20037;-76
2021/05/21 02:15:40;;;;;;;2.08;0.73;;;13.10;70.40;;;;;;5009075;28;20029;-75
2021/05/21 02:18:06;;;;;;;3.38;0.80;;;13.10;70.70;;;;;;5010141;28;20038;-78
2021/05/21 02:20:31;;;;;;;2.25;0.70;;;13.00;70.80;;;;;;5009075;28;20391;-76
2021/05/21 02:22:57;;;;;;;1.40;0.40;;;12.90;70.80;;;;;;5008496;28;20394;-75
2021/05/21 02:25:23;;;;;;;3.83;0.82;;;12.90;71.40;;;;;;5012775;28;20490;-75
2021/05/21 02:27:50;;;;;;;2.63;0.90;;;12.80;71.10;;;;;;4996243;28;20041;-75
2021/05/21 02:30:17;;;;;;;1.97;0.60;;;12.80;71.20;;;;;;5011877;28;20072;-75
2021/05/21 02:32:42;;;;;;;2.53;0.50;;;12.80;71.30;;;;;;5012488;28;20038;-75
2021/05/21 02:35:10;;;;;;;1.73;0.67;;;12.80;71.30;;;;;;4995699;28;20026;-78
2021/05/21 02:37:36;;;;;;;3.00;0.50;;;12.80;71.80;;;;;;5012658;28;20065;-75
2021/05/21 02:40:08;;;;;;;2.47;0.40;;;12.80;71.40;;;;;;5013714;28;20485;-75
2021/05/21 02:42:33;;;;;;;2.20;0.40;;;12.70;71.50;;;;;;5012098;28;20084;-75
2021/05/21 02:44:59;;;;;;;2.63;0.40;;;12.70;71.70;;;;;;5012371;28;20034;-75
2021/05/21 02:47:25;;;;;;;1.83;0.40;;;12.60;71.80;;;;;;5011830;28;20387;-76
2021/05/21 02:49:50;;;;;;;2.77;0.53;;;12.60;72.00;;;;;;4996259;28;20033;-76
2021/05/21 02:52:17;;;;;;;1.87;0.57;;;12.60;72.10;;;;;;5011464;28;20037;-75
2021/05/21 02:54:43;;;;;;;1.63;0.50;;;12.60;72.30;;;;;;5011793;28;20069;-76
2021/05/21 02:57:09;;;;;;;2.30;0.70;;;12.60;72.30;;;;;;5012050;28;20056;-80
2021/05/21 02:59:35;;;;;;;3.57;0.90;;;12.60;72.40;;;;;;5013136;28;20042;-76
2021/05/21 03:02:00;;;;;;;2.73;0.80;;;12.50;72.50;;;;;;5013156;28;20386;-76
2021/05/21 03:04:26;;;;;;;3.30;0.63;;;12.50;72.60;;;;;;5010925;28;20160;-76
2021/05/21 03:06:51;;;;;;;2.13;0.50;;;12.50;72.70;;;;;;5012172;28;20121;-75
2021/05/21 03:09:17;;;;;;;4.50;0.50;;;12.50;72.90;;;;;;4995309;28;20026;-76
2021/05/21 03:11:43;;;;;;;2.53;0.40;;;12.50;72.70;;;;;;5011668;28;20470;-76
2021/05/21 03:14:08;;;;;;;2.80;0.50;;;12.50;72.60;;;;;;4992002;28;20038;-76
2021/05/21 03:16:34;;;;;;;4.33;0.93;;;12.50;72.50;;;;;;4975690;28;20073;-75
2021/05/21 03:19:00;;;;;;;3.67;0.57;;;12.60;72.50;;;;;;4960576;28;20049;-75
2021/05/21 03:21:26;;;;;;;1.33;0.30;;;12.70;72.30;;;;;;4991982;28;20027;-75
2021/05/21 03:23:52;;;;;;;1.53;0.40;;;12.70;72.00;;;;;;5009403;28;20107;-75
2021/05/21 03:26:18;;;;;;;4.33;0.77;;;12.70;72.10;;;;;;5012136;28;20049;-76
2021/05/21 03:28:43;;;;;;;2.37;0.60;;;12.60;72.10;;;;;;5013254;28;20117;-75
2021/05/21 03:31:09;;;;;;;2.43;0.40;;;12.60;72.10;;;;;;4998124;28;20069;-75
2021/05/21 03:33:35;;;;;;;1.87;0.50;;;12.70;72.10;;;;;;5014384;28;20038;-75
2021/05/21 03:36:03;;;;;;;2.23;0.67;;;12.70;72.10;;;;;;5015932;28;20029;-75
2021/05/21 03:38:28;;;;;;;4.43;0.77;;;12.70;72.10;;;;;;5012362;28;20036;-77
2021/05/21 03:40:55;;;;;;;2.80;0.33;;;12.80;72.00;;;;;;5015424;28;20030;-77
2021/05/21 03:43:21;;;;;;;3.27;0.60;;;12.80;71.60;;;;;;4997356;28;20029;-76
2021/05/21 03:45:47;;;;;;;2.50;0.50;;;12.90;71.70;;;;;;4999167;28;20022;-75
2021/05/21 03:48:13;;;;;;;2.73;0.40;;;13.00;71.40;;;;;;5016028;28;20048;-76
2021/05/21 03:50:39;;;;;;;3.47;0.50;;;13.10;71.30;;;;;;5019754;28;20033;-75
2021/05/21 03:53:06;;;;;;;1.73;0.40;;;13.20;71.10;;;;;;5018630;28;20170;-76
2021/05/21 03:55:31;;;;;;;1.53;0.53;;;13.20;70.80;;;;;;5012003;28;20030;-75
2021/05/21 03:57:57;;;;;;;3.30;0.60;;;13.20;70.90;;;;;;5012950;28;20030;-75
2021/05/21 04:00:24;;;;;;;2.23;0.60;;;13.20;71.20;;;;;;5010308;28;20034;-76
2021/05/21 04:02:50;;;;;;;2.63;0.50;;;13.30;71.00;;;;;;5011956;28;20071;-75
2021/05/21 04:05:20;;;;;;;2.60;0.60;;;13.30;70.80;;;;;;5012139;28;20770;-74
2021/05/21 04:07:47;;;;;;;1.77;0.40;;;13.40;70.60;;;;;;5013643;28;20025;-74
2021/05/21 04:10:13;;;;;;;4.07;0.50;;;13.60;70.40;;;;;;5013929;28;20064;-75
2021/05/21 04:12:39;;;;;;;3.85;0.50;;;13.60;70.20;;;;;;5013550;28;20022;-75
2021/05/21 04:15:06;;;;;;;2.53;0.40;;;13.70;70.00;;;;;;4997775;28;20084;-76
2021/05/21 04:17:32;;;;;;;4.00;0.50;;;13.70;70.50;;;;;;5010171;28;20437;-75
2021/05/21 04:19:58;;;;;;;1.42;0.40;;;13.60;70.00;;;;;;5010716;28;20092;-77
2021/05/21 04:22:23;;;;;;;2.20;0.55;;;13.60;70.10;;;;;;4993759;28;20156;-80
2021/05/21 04:24:49;;;;;;;1.52;0.50;;;13.60;70.10;;;;;;5010532;28;20033;-77
2021/05/21 04:27:15;;;;;;;2.10;0.45;;;13.70;70.20;;;;;;5012130;28;20057;-76
2021/05/21 04:29:40;;;;;;;2.58;0.50;;;13.80;69.90;;;;;;5009782;28;20034;-76
2021/05/21 04:32:06;;;;;;;2.72;0.60;;;13.90;69.60;;;;;;5011841;28;20028;-76
2021/05/21 04:34:33;;;;;;;1.50;0.40;;;14.30;69.10;;;;;;5010483;28;20117;-78
2021/05/21 04:36:58;;;;;;;1.50;0.40;;;15.40;67.00;;;;;;4995297;28;20481;-76
2021/05/21 04:39:25;;;;;;;1.98;0.35;;;15.70;65.30;;;;;;5011749;28;20030;-77
2021/05/21 04:41:51;;;;;;;2.63;0.43;;;15.50;65.30;;;;;;5012226;28;20096;-77
2021/05/21 04:44:17;;;;;;;1.77;0.47;;;15.30;65.80;;;;;;5010019;28;20026;-76
2021/05/21 04:46:42;;;;;;;3.30;0.47;;;15.00;66.10;;;;;;5008982;28;20088;-76
2021/05/21 04:49:08;;;;;;;2.05;0.40;;;14.80;66.60;;;;;;5011690;28;20037;-76
2021/05/21 04:51:34;;;;;;;1.95;0.40;;;14.70;67.10;;;;;;5010020;28;20398;-77
2021/05/21 04:54:01;;;;;;;3.28;0.50;;;14.60;67.30;;;;;;5010576;28;20030;-77
2021/05/21 04:56:26;;;;;;;3.65;0.60;;;14.50;67.50;;;;;;5012518;28;20038;-77
2021/05/21 04:58:52;;;;;;;5.63;0.50;;;14.40;67.70;;;;;;5009767;28;20076;-77
2021/05/21 05:01:18;;;;;;;8.40;0.80;;;14.60;67.80;;;;;;5009812;28;20048;-77
2021/05/21 05:03:46;;;;;;;2.45;0.50;;;16.10;65.30;;;;;;4974542;28;20145;-77
2021/05/21 05:06:12;;;;;;;2.97;0.57;;;17.60;61.50;;;;;;4992204;28;20026;-76
2021/05/21 05:08:38;;;;;;;3.20;0.52;;;18.70;57.50;;;;;;4989483;28;20041;-76
2021/05/21 05:11:04;;;;;;;3.63;0.45;;;19.40;54.80;;;;;;4993287;28;20124;-76
2021/05/21 05:13:29;;;;;;;4.03;0.40;;;20.20;52.70;;;;;;5012372;28;20062;-77
2021/05/21 05:15:55;;;;;;;3.63;0.40;;;20.50;51.20;;;;;;4992913;28;20080;-75
2021/05/21 05:18:21;;;;;;;2.70;0.40;;;20.40;50.40;;;;;;5006358;28;20335;-77
2021/05/21 05:20:47;;;;;;;2.35;0.30;;;20.60;50.90;;;;;;4990594;28;20035;-76
2021/05/21 05:23:14;;;;;;;3.08;0.40;;;21.10;49.50;;;;;;5002658;28;20121;-76
2021/05/21 05:25:43;;;;;;;2.42;0.30;;;21.60;48.50;;;;;;5009039;28;20052;-77
2021/05/21 05:28:09;;;;;;;3.38;0.50;;;22.20;46.70;;;;;;5009926;28;20085;-76
2021/05/21 05:30:35;;;;;;;1.50;0.43;;;22.10;46.10;;;;;;4993224;28;20465;-83
2021/05/21 05:33:00;;;;;;;3.88;0.47;;;22.30;46.20;;;;;;4976656;28;20164;-77
2021/05/21 05:35:26;;;;;;;3.28;0.40;;;22.00;46.40;;;;;;5009207;28;20037;-76
2021/05/21 05:37:52;;;;;;;5.45;0.57;;;22.30;45.90;;;;;;5008475;28;20459;-77
2021/05/21 05:40:18;;;;;;;2.33;0.60;;;22.50;44.90;;;;;;4992425;28;20034;-76
2021/05/21 05:42:43;;;;;;;3.80;0.50;;;22.20;45.70;;;;;;5007654;28;20026;-76
2021/05/21 05:45:10;;;;;;;3.35;0.50;;;21.70;46.10;;;;;;4992816;28;20030;-77
2021/05/21 05:47:36;;;;;;;2.97;0.50;;;21.30;47.60;;;;;;5008556;28;20065;-81
2021/05/21 05:50:03;;;;;;;3.45;0.40;;;21.10;47.80;;;;;;4992081;28;20081;-76
2021/05/21 05:52:29;;;;;;;3.95;0.50;;;21.30;47.60;;;;;;5008899;28;20026;-76
2021/05/21 05:54:55;;;;;;;2.58;0.40;;;21.60;47.30;;;;;;4992330;28;20429;-77
2021/05/21 05:57:20;;;;;;;4.18;0.50;;;21.90;46.30;;;;;;5010405;28;20458;-76
2021/05/21 05:59:46;;;;;;;3.40;0.40;;;22.50;45.30;;;;;;4995761;28;20398;-76
2021/05/21 06:02:12;;;;;;;3.55;0.40;;;23.30;44.20;;;;;;5012238;28;20022;-76
2021/05/21 06:04:38;;;;;;;2.42;0.40;;;23.60;42.70;;;;;;5013836;28;20024;-75
2021/05/21 06:07:04;;;;;;;2.55;0.50;;;23.60;43.00;;;;;;5012462;28;20036;-77
2021/05/21 06:09:29;;;;;;;5.32;0.55;;;23.50;43.00;;;;;;5014163;28;20041;-75
2021/05/21 06:11:56;;;;;;;3.72;0.50;;;22.90;43.80;;;;;;5012573;28;20034;-75
2021/05/21 06:14:22;;;;;;;3.78;0.57;;;22.20;45.10;;;;;;4993039;28;20027;-76
2021/05/21 06:16:48;;;;;;;4.55;0.60;;;22.00;45.70;;;;;;5001787;28;20037;-75
2021/05/21 06:19:14;;;;;;;4.65;0.60;;;22.50;45.00;;;;;;4997406;28;20038;-76
2021/05/21 06:21:39;;;;;;;5.40;0.55;;;22.50;45.10;;;;;;5012214;28;20053;-77
2021/05/21 06:24:06;;;;;;;3.47;0.40;;;22.60;45.00;;;;;;5011959;28;20030;-75
2021/05/21 06:26:43;;;;;;;5.43;0.55;;;23.20;43.80;;;;;;4995821;28;20462;-77
2021/05/21 06:29:09;;;;;;;3.30;0.50;;;23.70;43.00;;;;;;5013257;28;20476;-76
2021/05/21 06:31:35;;;;;;;4.03;0.73;;;23.60;42.30;;;;;;4976305;28;20068;-76
2021/05/21 06:34:00;;;;;;;4.60;0.40;;;23.40;42.30;;;;;;4992002;28;20026;-76
2021/05/21 06:36:26;;;;;;;2.60;0.30;;;23.50;42.00;;;;;;5008867;28;20644;-77
2021/05/21 06:38:52;;;;;;;3.05;0.50;;;23.60;42.00;;;;;;5011150;28;20029;-77
2021/05/21 06:41:18;;;;;;;3.90;0.63;;;23.70;41.70;;;;;;4991564;28;20117;-77
2021/05/21 06:43:43;;;;;;;7.63;1.15;;;23.00;42.10;;;;;;4999778;28;20034;-77
2021/05/21 06:46:09;;;;;;;7.53;0.80;;;22.20;43.20;;;;;;5010823;28;20045;-77
2021/05/21 06:48:36;;;;;;;4.65;0.60;;;21.60;44.40;;;;;;5011852;28;20022;-77
2021/05/21 06:51:04;;;;;;;6.53;0.82;;;20.90;45.80;;;;;;5009778;28;20034;-76
2021/05/21 06:53:30;;;;;;;7.30;0.82;;;20.50;46.30;;;;;;5009207;28;20038;-76
2021/05/21 06:55:56;;;;;;;7.80;0.75;;;20.00;46.90;;;;;;5007238;28;20088;-80
2021/05/21 06:58:24;;;;;;;8.50;0.77;;;19.40;48.50;;;;;;4996119;28;20066;-76
2021/05/21 07:00:50;;;;;;;6.32;0.60;;;18.80;49.60;;;;;;5007086;28;20038;-80
2021/05/21 07:03:17;;;;;;;8.75;1.33;;;18.30;50.90;;;;;;5010175;28;20057;-76
2021/05/21 07:05:43;;;;;;;5.93;0.80;;;18.10;51.60;;;;;;4980387;28;20037;-76
2021/05/21 07:08:10;;;;;;;8.07;1.02;;;17.90;51.70;;;;;;5001822;28;20307;-81
2021/05/21 07:10:36;;;;;;;7.35;0.70;;;17.90;52.80;;;;;;5006579;28;20112;-79
2021/05/21 07:13:09;;;;;;;8.45;0.90;;;18.50;50.90;;;;;;5005363;28;20101;-77
2021/05/21 07:15:35;;;;;;;5.50;0.90;;;19.20;49.60;;;;;;5009118;28;20025;-76
2021/05/21 07:18:01;;;;;;;8.07;0.90;;;19.80;47.80;;;;;;5019513;28;20184;-76
2021/05/21 07:20:26;;;;;;;8.98;0.80;;;19.80;47.20;;;;;;5014431;28;20529;-78
2021/05/21 07:22:52;;;;;;;9.23;0.95;;;19.90;47.80;;;;;;5007157;28;20360;-82
2021/05/21 07:25:18;;;;;;;4.53;0.65;;;19.80;47.30;;;;;;4994546;28;20466;-77
2021/05/21 07:27:43;;;;;;;7.18;1.15;;;19.60;47.50;;;;;;5010965;28;20042;-77
2021/05/21 07:30:10;;;;;;;4.10;0.60;;;19.60;48.40;;;;;;5010563;28;20034;-77
2021/05/21 07:32:35;;;;;;;8.93;1.00;;;20.30;47.10;;;;;;4995100;28;20076;-77
2021/05/21 07:35:02;;;;;;;7.40;1.23;;;20.30;45.50;;;;;;5012034;28;20054;-76
2021/05/21 07:37:28;;;;;;;7.43;1.40;;;20.00;46.00;;;;;;5000587;28;20061;-76
2021/05/21 07:39:54;;;;;;;9.35;1.52;;;20.20;46.20;;;;;;5003715;28;20410;-78
2021/05/21 07:42:20;;;;;;;8.15;1.05;;;20.50;45.80;;;;;;4991177;28;20029;-78
2021/05/21 07:44:45;;;;;;;6.63;1.13;;;21.00;44.90;;;;;;4990234;28;20042;-77
2021/05/21 07:47:11;;;;;;;10.88;1.55;;;21.30;44.30;;;;;;4966810;28;20038;-76
2021/05/21 07:49:36;;;;;;;7.30;1.00;;;20.80;43.20;;;;;;4987128;28;20049;-78
2021/05/21 07:52:02;;;;;;;9.88;1.70;;;20.20;43.90;;;;;;4965592;28;20062;-81
2021/05/21 07:54:28;;;;;;;10.93;1.50;;;19.40;45.40;;;;;;5006045;28;20111;-78
2021/05/21 07:56:53;;;;;;;11.25;1.65;;;19.10;46.60;;;;;;4983215;28;20435;-76
2021/05/21 07:59:19;;;;;;;15.25;2.53;;;18.70;46.80;;;;;;5004167;28;20057;-77
2021/05/21 08:01:45;;;;;;;10.30;1.90;;;18.50;47.80;;;;;;5003636;28;20339;-77
2021/05/21 08:04:11;;;;;;;11.35;1.77;;;18.40;47.40;;;;;;5002768;28;20506;-78
2021/05/21 08:06:40;;;;;;;11.88;2.13;;;18.80;47.10;;;;;;5002968;28;20045;-81
2021/05/21 08:09:06;;;;;;;10.18;2.88;;;19.10;46.10;;;;;;4988275;28;20035;-80
2021/05/21 08:11:32;;;;;;;9.75;2.15;;;19.40;46.00;;;;;;5005387;28;20053;-77
2021/05/21 08:13:58;;;;;;;9.43;2.42;;;19.90;44.70;;;;;;4988862;28;20439;-77
2021/05/21 08:16:26;;;;;;;12.68;4.10;;;20.70;44.00;;;;;;5005445;28;20152;-79
2021/05/21 08:18:51;;;;;;;12.18;4.60;;;21.70;43.30;;;;;;5005602;28;20117;-77
2021/05/21 08:21:17;;;;;;;16.58;4.22;;;21.90;41.50;;;;;;5006445;28;20545;-76
2021/05/21 08:23:43;;;;;;;8.75;3.80;;;21.70;41.60;;;;;;4992221;28;20045;-79
2021/05/21 08:26:10;;;;;;;11.20;5.20;;;21.70;41.40;;;;;;4992374;28;20034;-78
2021/05/21 08:28:36;;;;;;;8.98;3.78;;;21.60;41.40;;;;;;4992958;28;20478;-78
2021/05/21 08:31:03;;;;;;;12.77;3.47;;;21.70;40.20;;;;;;5009337;28;20026;-78
2021/05/21 08:33:28;;;;;;;13.27;3.58;;;21.30;40.50;;;;;;5010629;28;20022;-77
2021/05/21 08:35:54;;;;;;;13.18;5.88;;;21.00;41.10;;;;;;5010957;28;20037;-77
2021/05/21 08:38:20;;;;;;;19.15;9.48;;;21.20;41.80;;;;;;5008847;28;20489;-79
2021/05/21 08:40:47;;;;;;;16.52;7.35;;;21.90;41.40;;;;;;4997126;28;20113;-76
2021/05/21 08:43:13;;;;;;;18.60;8.70;;;22.50;40.00;;;;;;5009498;28;20111;-76
2021/05/21 08:45:39;;;;;;;12.15;4.95;;;23.00;38.70;;;;;;5009618;28;20050;-77
2021/05/21 08:48:12;;;;;;;11.35;5.95;;;22.80;37.90;;;;;;4983192;28;20042;-79
2021/05/21 08:50:38;;;;;;;13.90;5.13;;;22.20;38.90;;;;;;5007921;28;20076;-77
2021/05/21 08:53:04;;;;;;;23.58;8.05;;;21.70;40.30;;;;;;5011147;28;20034;-75
2021/05/21 08:55:30;;;;;;;15.10;7.03;;;21.50;41.00;;;;;;5008369;28;20034;-76
2021/05/21 08:57:55;;;;;;;19.02;9.77;;;21.20;41.30;;;;;;5009153;28;20125;-75
2021/05/21 09:00:21;;;;;;;16.00;4.25;;;20.90;41.80;;;;;;5009980;28;20037;-75
2021/05/21 09:02:47;;;;;;;20.23;7.70;;;20.70;42.10;;;;;;5002492;28;20076;-76
2021/05/21 09:05:13;;;;;;;24.75;7.28;;;20.90;42.50;;;;;;4999178;28;20145;-77
2021/05/21 09:07:42;;;;;;;15.02;5.50;;;20.90;42.30;;;;;;5002805;28;20026;-77
2021/05/21 09:10:21;;;;;;;19.35;2.55;;;20.90;41.90;;;;;;5034089;28;20083;-76
2021/05/21 09:12:51;;;;;;;19.70;3.70;;;21.50;40.40;;;;;;5010043;28;20038;-77
2021/05/21 09:15:19;;;;;;;9.45;2.08;;;21.90;40.20;;;;;;5000178;28;20026;-76
2021/05/21 09:17:55;;;;;;;16.70;5.05;;;22.20;39.30;;;;;;5001251;28;20427;-77
2021/05/21 09:20:36;;;;;;;18.50;5.70;;;22.20;39.20;;;;;;5005608;28;20112;-76
2021/05/21 09:23:10;;;;;;;20.45;3.08;;;22.40;38.70;;;;;;5016204;28;20485;-74
2021/05/21 09:25:48;;;;;;;11.05;1.92;;;22.30;37.60;;;;;;5013083;28;20156;-76
2021/05/21 09:28:37;;;;;;;12.77;2.33;;;22.10;37.30;;;;;;5003101;28;20038;-79
2021/05/21 09:31:13;;;;;;;9.98;1.90;;;21.50;38.10;;;;;;4990305;28;20050;-75
2021/05/21 09:33:45;;;;;;;12.88;2.33;;;21.10;39.20;;;;;;5005315;28;20021;-75
2021/05/21 09:36:12;;;;;;;13.70;2.50;;;20.70;38.90;;;;;;5012208;28;20033;-76
2021/05/21 09:38:49;;;;;;;16.08;2.50;;;20.50;40.30;;;;;;4988660;28;20038;-75
2021/05/21 09:41:15;;;;;;;7.88;1.50;;;21.00;38.90;;;;;;5006497;28;20088;-79
2021/05/21 09:43:40;;;;;;;7.60;1.90;;;21.30;38.40;;;;;;5007529;28;20025;-76
2021/05/21 09:46:11;;;;;;;6.40;1.48;;;21.30;39.00;;;;;;5008891;28;20138;-76
2021/05/21 09:48:37;;;;;;;17.58;3.55;;;20.90;39.70;;;;;;5009995;28;20319;-76
2021/05/21 09:51:04;;;;;;;12.20;2.15;;;20.60;41.50;;;;;;5007348;28;20499;-75
2021/05/21 09:53:33;;;;;;;11.68;2.63;;;20.50;40.90;;;;;;5001269;28;20098;-77
2021/05/21 09:56:01;;;;;;;11.48;2.10;;;20.50;40.80;;;;;;5009059;28;20030;-75
2021/05/21 09:58:40;;;;;;;11.00;1.73;;;20.80;41.10;;;;;;4990854;28;20029;-77
2021/05/21 10:01:18;;;;;;;11.48;1.75;;;21.20;39.70;;;;;;5009967;28;20459;-76
2021/05/21 10:03:55;;;;;;;9.07;0.95;;;21.00;39.40;;;;;;5007875;28;20042;-76
2021/05/21 10:06:26;;;;;;;7.38;1.10;;;21.10;39.50;;;;;;4992830;28;20053;-81
2021/05/21 10:08:56;;;;;;;14.05;1.42;;;21.00;38.60;;;;;;5010836;28;20091;-77
2021/05/21 10:11:22;;;;;;;10.05;1.40;;;20.70;38.70;;;;;;5008998;28;20049;-81
2021/05/21 10:13:48;;;;;;;9.07;1.13;;;20.40;39.40;;;;;;5010980;28;20466;-78
2021/05/21 10:16:15;;;;;;;9.60;1.75;;;20.40;39.50;;;;;;4992879;28;20121;-74
2021/05/21 10:19:00;;;;;;;11.68;1.45;;;20.70;39.50;;;;;;4992139;28;20205;-75
2021/05/21 10:21:25;;;;;;;13.52;1.80;;;21.10;39.10;;;;;;5007739;28;20025;-77
2021/05/21 10:24:06;;;;;;;9.32;1.70;;;21.30;39.20;;;;;;5008923;28;20471;-76
2021/05/21 10:26:38;;;;;;;15.23;1.58;;;21.70;38.80;;;;;;5015270;28;20026;-76
2021/05/21 10:29:13;;;;;;;11.75;1.30;;;22.00;37.60;;;;;;5008169;28;20042;-76
2021/05/21 10:31:39;;;;;;;8.88;1.40;;;22.40;37.70;;;;;;5008785;28;20076;-77
2021/05/21 10:34:17;;;;;;;10.63;1.60;;;22.90;37.20;;;;;;4987605;28;20026;-76
2021/05/21 10:36:43;;;;;;;9.93;1.20;;;23.10;35.50;;;;;;5007309;28;20022;-76
2021/05/21 10:39:12;;;;;;;11.05;1.60;;;23.20;34.00;;;;;;5009419;28;20537;-77
2021/05/21 10:41:39;;;;;;;12.93;1.73;;;23.10;33.80;;;;;;5006819;28;20448;-76
2021/05/21 10:44:22;;;;;;;9.68;1.20;;;22.90;34.70;;;;;;5000694;28;20025;-78
2021/05/21 10:46:50;;;;;;;15.05;1.90;;;22.80;35.40;;;;;;5043756;28;20140;-77
2021/05/21 10:49:25;;;;;;;10.25;1.33;;;22.50;35.50;;;;;;5014348;28;20030;-79
2021/05/21 10:52:01;;;;;;;13.13;2.30;;;22.40;35.50;;;;;;5015005;28;20054;-78
2021/05/21 10:54:51;;;;;;;7.22;1.45;;;22.70;35.40;;;;;;5014589;28;20538;-81
2021/05/21 10:57:19;;;;;;;12.88;1.83;;;22.80;34.60;;;;;;4999436;28;20039;-77
2021/05/21 10:59:50;;;;;;;10.68;1.80;;;22.80;34.60;;;;;;5006375;28;20030;-77
2021/05/21 11:02:16;;;;;;;9.60;1.70;;;22.90;35.00;;;;;;4998356;28;20547;-78
2021/05/21 11:04:42;;;;;;;12.00;1.45;;;23.00;35.00;;;;;;4998699;28;20073;-77
2021/05/21 11:07:08;;;;;;;8.52;1.63;;;23.20;34.80;;;;;;5008428;28;20068;-80
2021/05/21 11:09:45;;;;;;;15.80;1.70;;;23.40;33.90;;;;;;4991528;28;20437;-79
2021/05/21 11:12:15;;;;;;;12.95;1.40;;;23.40;33.70;;;;;;5010016;28;20520;-78
2021/05/21 11:14:46;;;;;;;19.90;2.10;;;23.60;33.60;;;;;;5011721;28;20026;-78
2021/05/21 11:17:26;;;;;;;14.15;1.80;;;23.40;33.60;;;;;;4995277;28;20033;-79
2021/05/21 11:19:59;;;;;;;9.65;1.20;;;23.20;33.50;;;;;;5011615;28;20036;-77
2021/05/21 11:22:29;;;;;;;14.73;1.90;;;23.10;34.20;;;;;;5009617;28;20080;-78
2021/05/21 11:25:12;;;;;;;13.95;1.48;;;22.90;34.60;;;;;;5008260;28;20498;-76
2021/05/21 11:27:38;;;;;;;13.68;1.80;;;22.50;34.90;;;;;;5010350;28;20061;-76
2021/05/21 11:30:09;;;;;;;12.50;1.48;;;22.20;36.00;;;;;;5011876;28;20093;-76
2021/05/21 11:32:37;;;;;;;14.73;1.23;;;21.90;35.90;;;;;;5009858;28;20032;-79
2021/05/21 11:35:05;;;;;;;14.68;1.30;;;21.50;35.40;;;;;;4995014;28;20030;-77
2021/05/21 11:37:31;;;;;;;12.27;1.23;;;21.30;35.70;;;;;;5010099;28;20046;-78
2021/05/21 11:40:00;;;;;;;12.77;1.40;;;21.20;36.00;;;;;;5008497;28;20113;-78
2021/05/21 11:42:27;;;;;;;7.65;1.17;;;21.20;35.50;;;;;;5011866;28;20025;-78
2021/05/21 11:44:55;;;;;;;17.27;1.63;;;21.50;35.90;;;;;;5009673;28;20524;-76
2021/05/21 11:47:40;;;;;;;15.02;1.50;;;21.80;35.70;;;;;;5010983;28;20034;-75
2021/05/21 11:50:08;;;;;;;7.10;1.00;;;22.10;35.90;;;;;;5011882;28;20032;-80
2021/05/21 11:52:34;;;;;;;11.45;1.67;;;22.10;35.40;;;;;;5010053;28;20132;-80
2021/05/21 11:55:00;;;;;;;12.27;1.08;;;22.00;36.20;;;;;;5008852;28;20032;-76
2021/05/21 11:57:26;;;;;;;13.65;1.10;;;22.10;35.50;;;;;;5010935;28;20378;-77
2021/05/21 11:59:56;;;;;;;13.80;1.33;;;22.20;35.70;;;;;;5009708;28;20037;-77
2021/05/21 12:02:22;;;;;;;18.80;1.00;;;22.10;34.80;;;;;;5008146;28;20022;-76
2021/05/21 12:04:48;;;;;;;12.82;1.02;;;22.00;35.00;;;;;;4992630;28;20559;-77
2021/05/21 12:07:21;;;;;;;13.77;1.30;;;21.90;34.70;;;;;;4993801;28;20033;-76
2021/05/21 12:10:04;;;;;;;15.57;1.20;;;22.10;34.90;;;;;;5008169;28;20040;-77
2021/05/21 12:12:35;;;;;;;16.90;1.33;;;22.20;34.40;;;;;;5012085;28;20109;-76
2021/05/21 12:15:13;;;;;;;35.15;1.52;;;22.20;34.70;;;;;;4980918;28;20039;-76
2021/05/21 12:17:47;;;;;;;9.10;1.20;;;21.90;34.00;;;;;;4988653;28;20026;-78
2021/05/21 12:20:15;;;;;;;10.18;1.00;;;21.80;34.40;;;;;;5006178;28;20026;-78
2021/05/21 12:23:05;;;;;;;11.45;1.55;;;21.90;34.50;;;;;;4993854;28;20108;-82
2021/05/21 12:25:37;;;;;;;12.43;1.80;;;22.10;34.70;;;;;;5010368;28;20438;-78
2021/05/21 12:28:05;;;;;;;19.13;1.40;;;22.40;35.00;;;;;;5009517;28;20037;-79
2021/05/21 12:30:30;;;;;;;20.83;1.85;;;22.50;34.70;;;;;;4991492;28;20053;-77
2021/05/21 12:32:58;;;;;;;12.98;1.30;;;22.40;34.90;;;;;;5008091;28;20030;-77
2021/05/21 12:35:37;;;;;;;13.00;1.08;;;22.50;35.20;;;;;;5011396;28;20087;-78
2021/05/21 12:38:04;;;;;;;11.27;1.15;;;22.30;34.80;;;;;;5010382;28;20117;-76
2021/05/21 12:40:30;;;;;;;15.98;1.30;;;22.30;35.20;;;;;;5010000;28;20058;-78
2021/05/21 12:42:56;;;;;;;11.32;1.40;;;22.30;35.30;;;;;;5009434;28;20060;-77
2021/05/21 12:45:22;;;;;;;9.60;1.10;;;22.50;34.90;;;;;;5010044;28;20025;-77